首页
METAR-TAF:

METAR-TAF

机场 :

萨瓦德尔, 西班牙

纬度: 41-31N, 经度: 002-06E, 海拔: 250米

当前天气观测

该预报发布于18分钟前的21:30 UTC
风速2节,风向多变
温度 13°C
湿度 77%
气压 1014 hPa
能见度10公里或以上
1500米以下无云,无积雨云

METAR: LELL 292130Z AUTO VRB02KT CAVOK 13/09 Q1014

时间: 23:48 (21:48 UTC)

预报

该预报发布于7小时和48分钟前的14:00 UTC
预报有效从29日的 15点(UTC)到 30日的 15点(UTC)
风速8节,风向东南
能见度10公里或以上
少量云层高于3000英尺
几率 30% :
短暂存在
从 29日的 15点(UTC)到 29日的 18点(UTC)
少量云层高于3000英尺, 塔状积云.
成为
从 29日的 18点(UTC)到 29日的 20点(UTC)
风速8节,风向东转东北
几率 40% :
短暂存在
从 30日的 06点(UTC)到 30日的 15点(UTC)
多云层高于2500英尺
成为
从 30日的 06点(UTC)到 30日的 08点(UTC)
风速7节,风向西转西北

TAF: LELL 291400Z 2915/3015 13008KT 9999 FEW030 TX12/3013Z TN06/3006Z PROB30 TEMPO 2915/2918 FEW030TCU BECMG 2918/2920 06008KT PROB40 TEMPO 3006/3015 RA BKN025 BECMG 3006/3008 29007KT

超过4000个机场的气象观测和天气预报(METAR&TAF报告)。

可查询的气象台以黄色和红色小点在地图上表示。

将鼠标移到小点上方,可查看气象台名称。

然后点击查看天气观测和预报。

如需切换地图:点击带黑十字的绿色按钮放大地图;点击带横线的绿色按钮缩小地图;或者点击绿色箭头查看邻近地区的地图。


METAR-TAF: